This is the latest recevied weather packets stored in our database for station/object WC0AA-WX. If no packets are shown the sender has not sent any weather packets the latest 10 day(s).
| Time | Temp. | Humidity | Pressure | Rain* | Wind** | Luminosity | Snow |
|---|---|---|---|---|---|---|---|
| 1788038253 | 33.89° C | 52% | 1010.8 hPa | 0 mm | - | - | - |
| 1788022591 | 28.89° C | 59% | 1014.1 hPa | 0 mm | - | - | - |
| 1788018990 | 28.33° C | 61% | 1014.4 hPa | 0 mm | - | - | - |
| 1788018390 | 27.78° C | 60% | 1014.4 hPa | 0 mm | - | - | - |
| 1788017790 | 28.33° C | 59% | 1014.4 hPa | 0 mm | - | - | - |
| 1788017190 | 27.78° C | 62% | 1014.6 hPa | 0 mm | - | - | - |
| 1788016590 | 26.11° C | 65% | 1014.6 hPa | 0 mm | - | - | - |
| 1788015990 | 26.11° C | 63% | 1014.6 hPa | 0 mm | - | - | - |
| 1788015389 | 26.67° C | 62% | 1014.7 hPa | 0 mm | - | - | - |
| 1788014790 | 26.11° C | 62% | 1014.8 hPa | 0 mm | - | - | - |
| 1788014190 | 26.11° C | 64% | 1014.9 hPa | 0 mm | - | - | - |
| 1788013596 | 25.56° C | 64% | 1015 hPa | 0 mm | - | - | - |
| 1788012990 | 25° C | 65% | 1014.9 hPa | 0 mm | - | - | - |
| 1788012360 | 24.44° C | 69% | 1015.1 hPa | 0 mm | - | - | - |
| 1788011759 | 23.89° C | 70% | 1015.1 hPa | 0 mm | - | - | - |
| 1788011160 | 23.33° C | 72% | 1015.3 hPa | 0 mm | - | - | - |
| 1788010559 | 22.78° C | 73% | 1015.3 hPa | 0 mm | - | - | - |
| 1788009929 | 22.22° C | 75% | 1015.2 hPa | 0 mm | - | - | - |
| 1788009328 | 21.67° C | 76% | 1015.2 hPa | 0 mm | - | - | - |
| 1788008729 | 21.11° C | 78% | 1015.2 hPa | 0 mm | - | - | - |
| 1788008129 | 20.56° C | 79% | 1015.2 hPa | 0 mm | - | - | - |
| 1788007528 | 20.56° C | 79% | 1015.3 hPa | 0 mm | - | - | - |
| 1788006930 | 20° C | 80% | 1015.3 hPa | 0 mm | - | - | - |
| 1788006328 | 19.44° C | 81% | 1015.4 hPa | 0 mm | - | - | - |
| 1788005728 | 19.44° C | 81% | 1015.4 hPa | 0 mm | - | - | - |
* Rain latest hour (hover to see other rain measurements)
** Current wind speed in m/s (hover to see current wind gust speed)